Time;durP1;ratioP1;P1;durP2;ratioP2;P2;SDS_P1;SDS_P2;PMS_P1;PMS_P2;Temp;Humidity;BMP_temperature;BMP_pressure;BME280_temperature;BME280_humidity;BME280_pressure;Samples;Min_cycle;Max_cycle;Signal;HPM_P1;HPM_P2
2023/06/11 00:00:26;0.00;0.00;0.62;0.00;0.00;0.62;7.40;6.80;;;31.60;24.80;;;;;;2256839;61;20401;-65
2023/06/11 00:03:13;0.00;0.00;0.62;0.00;0.00;0.62;6.80;6.30;;;31.60;24.80;;;;;;2256695;61;20358;-66
2023/06/11 00:05:58;0.00;0.00;0.62;0.00;0.00;0.62;7.60;6.90;;;31.60;24.80;;;;;;2256793;61;20365;-65
2023/06/11 00:08:42;0.00;0.00;0.62;0.00;0.00;0.62;6.87;6.33;;;31.50;24.80;;;;;;2256687;61;20382;-66
2023/06/11 00:11:27;0.00;0.00;0.62;0.00;0.00;0.62;7.47;6.87;;;31.50;24.80;;;;;;2256562;61;20377;-66
2023/06/11 00:14:12;0.00;0.00;0.62;0.00;0.00;0.62;7.60;7.00;;;31.50;24.80;;;;;;2256808;61;20369;-65
2023/06/11 00:16:56;0.00;0.00;0.62;0.00;0.00;0.62;7.30;6.63;;;31.50;24.80;;;;;;2256622;61;20361;-66
2023/06/11 00:19:43;0.00;0.00;0.62;0.00;0.00;0.62;7.20;6.60;;;31.50;24.90;;;;;;2256828;61;20827;-65
2023/06/11 00:22:31;0.00;0.00;0.62;0.00;0.00;0.62;6.77;6.17;;;31.50;24.80;;;;;;2256708;61;20447;-65
2023/06/11 00:25:16;0.00;0.00;0.62;0.00;0.00;0.62;7.07;6.57;;;31.50;24.80;;;;;;2256602;61;20436;-64
2023/06/11 00:28:00;0.00;0.00;0.62;0.00;0.00;0.62;6.50;6.00;;;31.50;25.40;;;;;;2256699;61;20454;-65
2023/06/11 00:30:45;0.00;0.00;0.62;0.00;0.00;0.62;7.50;6.90;;;31.50;24.90;;;;;;2256585;61;20843;-65
2023/06/11 00:33:29;0.00;0.00;0.62;0.00;0.00;0.62;6.83;6.33;;;31.50;24.80;;;;;;2256715;61;20405;-64
2023/06/11 00:36:16;0.00;0.00;0.62;0.00;0.00;0.62;6.33;5.83;;;31.50;24.80;;;;;;2256767;61;20381;-64
2023/06/11 00:39:01;0.00;0.00;0.62;0.00;0.00;0.62;6.40;5.80;;;31.50;24.80;;;;;;2256327;61;20764;-65
2023/06/11 00:41:48;0.00;0.00;0.62;0.00;0.00;0.62;6.60;6.10;;;31.50;24.80;;;;;;2256432;61;20405;-64
2023/06/11 00:44:33;0.00;0.00;0.62;0.00;0.00;0.62;7.13;6.57;;;31.50;24.80;;;;;;2256067;61;20920;-68
2023/06/11 00:47:18;0.00;0.00;0.62;0.00;0.00;0.62;6.33;5.93;;;31.50;24.80;;;;;;2255939;61;20885;-65
2023/06/11 00:50:05;0.00;0.00;0.62;0.00;0.00;0.62;7.40;6.80;;;31.40;24.80;;;;;;2256368;61;20361;-65
2023/06/11 00:52:51;0.00;0.00;0.62;0.00;0.00;0.62;6.83;6.23;;;31.40;24.70;;;;;;2256194;61;20424;-68
2023/06/11 00:55:36;0.00;0.00;0.62;0.00;0.00;0.62;6.70;6.20;;;31.40;24.70;;;;;;2256603;61;20409;-67
2023/06/11 00:58:22;0.00;0.00;0.62;0.00;0.00;0.62;7.27;6.67;;;31.50;24.80;;;;;;2256774;61;20377;-65
2023/06/11 01:01:07;0.00;0.00;0.62;0.00;0.00;0.62;6.63;6.07;;;31.40;24.70;;;;;;2256508;61;20835;-66
2023/06/11 01:03:56;0.00;0.00;0.62;0.00;0.00;0.62;6.63;6.13;;;31.40;24.70;;;;;;2256412;61;20525;-69
2023/06/11 01:06:46;0.00;0.00;0.62;0.00;0.00;0.62;6.50;5.90;;;31.40;24.70;;;;;;2256192;61;20998;-65
2023/06/11 01:09:33;0.00;0.00;0.62;0.00;0.00;0.62;6.20;5.70;;;31.40;24.70;;;;;;2256098;61;20910;-66
2023/06/11 01:12:17;0.00;0.00;0.62;0.00;0.00;0.62;6.17;5.67;;;31.40;24.70;;;;;;2256007;61;20432;-66
2023/06/11 01:15:03;0.00;0.00;0.62;0.00;0.00;0.62;6.10;5.60;;;31.40;24.70;;;;;;2256487;61;20441;-65
2023/06/11 01:17:57;0.00;0.00;0.62;0.00;0.00;0.62;6.43;5.83;;;31.40;24.70;;;;;;2256288;61;20568;-65
2023/06/11 01:20:49;0.00;0.00;0.62;0.00;0.00;0.62;6.20;5.70;;;31.40;24.70;;;;;;2256808;61;20423;-65
2023/06/11 01:23:42;0.00;0.00;0.62;0.00;0.00;0.62;6.20;5.60;;;31.40;24.70;;;;;;2255922;61;20796;-64
2023/06/11 01:26:47;0.00;0.00;0.62;0.00;0.00;0.62;6.87;6.13;;;31.40;24.70;;;;;;2256265;61;20366;-65
2023/06/11 01:29:37;0.00;0.00;0.62;0.00;0.00;0.62;7.00;6.40;;;31.40;24.70;;;;;;2256007;61;20922;-65
2023/06/11 01:32:27;0.00;0.00;0.62;0.00;0.00;0.62;5.80;5.30;;;31.40;24.70;;;;;;2255981;61;20485;-65
2023/06/11 01:35:16;0.00;0.00;0.62;0.00;0.00;0.62;6.07;5.60;;;31.40;24.70;;;;;;2256214;61;20354;-64
2023/06/11 01:38:03;0.00;0.00;0.62;0.00;0.00;0.62;5.80;5.30;;;31.40;24.70;;;;;;2256102;61;20428;-66
2023/06/11 01:41:01;0.00;0.00;0.62;0.00;0.00;0.62;5.57;5.13;;;31.30;24.70;;;;;;2256128;61;20378;-65
2023/06/11 01:43:47;0.00;0.00;0.62;0.00;0.00;0.62;6.03;5.53;;;31.30;24.70;;;;;;2255927;61;20461;-66
2023/06/11 01:46:34;0.00;0.00;0.62;0.00;0.00;0.62;5.80;5.13;;;31.30;24.60;;;;;;2256066;61;20377;-65
2023/06/11 01:49:19;0.00;0.00;0.62;0.00;0.00;0.62;5.93;5.33;;;31.30;24.60;;;;;;2256223;61;20938;-65
2023/06/11 01:52:05;0.00;0.00;0.62;0.00;0.00;0.62;5.67;5.27;;;31.30;24.60;;;;;;2251673;61;20393;-66
2023/06/11 01:54:50;0.00;0.00;0.62;0.00;0.00;0.62;6.00;5.50;;;31.30;24.60;;;;;;2251869;61;20794;-65
2023/06/11 01:57:36;0.00;0.00;0.62;0.00;0.00;0.62;5.30;4.80;;;31.30;24.60;;;;;;2252020;61;20358;-64
2023/06/11 02:00:23;0.00;0.00;0.62;0.00;0.00;0.62;6.40;5.80;;;31.30;25.20;;;;;;2251896;61;20362;-64
2023/06/11 02:03:11;0.00;0.00;0.62;0.00;0.00;0.62;5.90;5.40;;;31.30;24.60;;;;;;2251677;61;20359;-64
2023/06/11 02:05:56;0.00;0.00;0.62;0.00;0.00;0.62;5.80;5.27;;;31.20;24.60;;;;;;2252165;61;20413;-64
2023/06/11 02:08:41;0.00;0.00;0.62;0.00;0.00;0.62;6.20;5.40;;;31.20;24.50;;;;;;2251643;61;20782;-64
2023/06/11 02:11:27;0.00;0.00;0.62;0.00;0.00;0.62;5.90;5.40;;;31.20;24.50;;;;;;2252128;61;20383;-66
2023/06/11 02:14:12;0.00;0.00;0.62;0.00;0.00;0.62;5.33;4.93;;;31.20;24.50;;;;;;2251971;61;20819;-64
2023/06/11 02:16:57;0.00;0.00;0.62;0.00;0.00;0.62;6.03;5.50;;;31.20;24.50;;;;;;2251879;61;20912;-62
2023/06/11 02:19:44;0.00;0.00;0.62;0.00;0.00;0.62;5.33;4.87;;;31.20;24.50;;;;;;2251726;61;20367;-63
2023/06/11 02:22:28;0.00;0.00;0.62;0.00;0.00;0.62;5.80;5.30;;;31.20;24.50;;;;;;2252184;61;20390;-64
2023/06/11 02:25:13;0.00;0.00;0.62;0.00;0.00;0.62;5.47;4.63;;;31.20;24.50;;;;;;2252401;61;20390;-64
2023/06/11 02:27:58;0.00;0.00;0.62;0.00;0.00;0.62;5.27;4.87;;;31.20;24.50;;;;;;2252052;61;20518;-64
2023/06/11 02:30:44;0.00;0.00;0.62;0.00;0.00;0.62;5.53;4.60;;;31.20;24.50;;;;;;2251934;61;20383;-64
2023/06/11 02:33:29;0.00;0.00;0.62;0.00;0.00;0.62;5.10;4.70;;;31.20;25.10;;;;;;2251893;61;20362;-64
2023/06/11 02:36:15;0.00;0.00;0.62;0.00;0.00;0.62;5.13;4.63;;;31.20;24.50;;;;;;2252400;61;20402;-64
2023/06/11 02:39:00;0.00;0.00;0.62;0.00;0.00;0.62;5.33;4.93;;;31.20;24.50;;;;;;2252026;61;20778;-65
2023/06/11 02:41:45;0.00;0.00;0.62;0.00;0.00;0.62;5.40;4.90;;;31.20;24.50;;;;;;2252168;61;20391;-64
2023/06/11 02:44:29;0.00;0.00;0.62;0.00;0.00;0.62;6.00;5.50;;;31.20;24.50;;;;;;2251735;61;20394;-65
2023/06/11 02:47:14;0.00;0.00;0.62;0.00;0.00;0.62;5.00;4.60;;;31.20;24.50;;;;;;2253620;61;20385;-65
2023/06/11 02:49:59;0.00;0.00;0.62;0.00;0.00;0.62;5.13;4.70;;;31.20;24.50;;;;;;2256485;61;20405;-63
2023/06/11 02:52:46;0.00;0.00;0.62;0.00;0.00;0.62;4.90;4.50;;;31.20;24.50;;;;;;2255959;61;20366;-65
2023/06/11 02:55:31;0.00;0.00;0.62;0.00;0.00;0.62;5.10;4.70;;;31.10;24.40;;;;;;2256194;61;20930;-65
2023/06/11 02:58:15;0.00;0.00;0.62;0.00;0.00;0.62;5.90;5.40;;;31.10;24.40;;;;;;2252972;61;20954;-66
2023/06/11 03:01:00;0.00;0.00;0.62;0.00;0.00;0.62;5.80;5.30;;;31.20;24.50;;;;;;2255902;61;20902;-64
2023/06/11 03:03:45;0.00;0.00;0.62;0.00;0.00;0.62;4.73;4.33;;;31.10;24.40;;;;;;2255853;61;20420;-64
2023/06/11 03:06:33;0.00;0.00;0.62;0.00;0.00;0.62;5.00;4.60;;;31.10;24.40;;;;;;2255766;61;20358;-65
2023/06/11 03:09:21;0.00;0.00;0.62;0.00;0.00;0.62;8.30;4.70;;;31.10;24.40;;;;;;2256051;61;20362;-63
2023/06/11 03:12:08;0.00;0.00;0.62;0.00;0.00;0.62;5.10;4.60;;;31.10;24.40;;;;;;2255724;61;20444;-66
2023/06/11 03:14:54;0.00;0.00;0.62;0.00;0.00;0.62;4.97;4.17;;;31.10;24.40;;;;;;2255764;61;20443;-65
2023/06/11 03:17:39;0.00;0.00;0.62;0.00;0.00;0.62;5.13;4.63;;;31.10;24.40;;;;;;2256521;61;20762;-64
2023/06/11 03:20:24;0.00;0.00;0.62;0.00;0.00;0.62;4.83;4.33;;;31.10;24.40;;;;;;2256291;61;20408;-65
2023/06/11 03:23:10;0.00;0.00;0.62;0.00;0.00;0.62;5.10;4.33;;;31.10;24.40;;;;;;2255896;61;20358;-64
2023/06/11 03:25:58;0.00;0.00;0.62;0.00;0.00;0.62;4.80;4.40;;;31.10;24.40;;;;;;2255788;61;20500;-64
2023/06/11 03:28:44;0.00;0.00;0.62;0.00;0.00;0.62;6.13;4.70;;;31.10;24.40;;;;;;2255843;61;20365;-66
2023/06/11 03:31:31;0.00;0.00;0.62;0.00;0.00;0.62;5.50;5.00;;;31.10;24.40;;;;;;2255680;61;20416;-63
2023/06/11 03:34:16;0.00;0.00;0.62;0.00;0.00;0.62;5.60;4.60;;;31.10;24.40;;;;;;2256484;61;20357;-65
2023/06/11 03:37:02;0.00;0.00;0.62;0.00;0.00;0.62;4.73;4.33;;;31.00;24.30;;;;;;2256416;61;20943;-64
2023/06/11 03:39:47;0.00;0.00;0.62;0.00;0.00;0.62;5.30;4.80;;;31.00;24.30;;;;;;2256813;61;20838;-63
2023/06/11 03:42:33;0.00;0.00;0.62;0.00;0.00;0.62;4.47;4.07;;;31.00;24.30;;;;;;2256380;61;20377;-63
2023/06/11 03:45:19;0.00;0.00;0.62;0.00;0.00;0.62;4.33;3.93;;;31.00;24.30;;;;;;2256622;61;20525;-64
2023/06/11 03:48:05;0.00;0.00;0.62;0.00;0.00;0.62;4.10;3.80;;;31.00;24.30;;;;;;2256915;61;20362;-64
2023/06/11 03:50:51;0.00;0.00;0.62;0.00;0.00;0.62;4.50;4.10;;;31.00;24.30;;;;;;2256416;61;20406;-65
2023/06/11 03:53:35;0.00;0.00;0.62;0.00;0.00;0.62;4.90;4.40;;;31.00;24.30;;;;;;2438708;53;20378;-64
2023/06/11 03:56:20;0.00;0.00;0.62;0.00;0.00;0.62;3.43;3.13;;;31.00;24.30;;;;;;2252422;61;20358;-64
2023/06/11 03:59:06;0.00;0.00;0.62;0.00;0.00;0.62;4.90;4.40;;;31.00;24.30;;;;;;2252462;61;20379;-65
2023/06/11 04:01:51;0.00;0.00;0.62;0.00;0.00;0.62;4.97;4.23;;;31.00;24.30;;;;;;2252842;61;20698;-64
2023/06/11 04:04:36;0.00;0.00;0.62;0.00;0.00;0.62;4.20;3.60;;;31.00;24.30;;;;;;2252797;61;20433;-64
2023/06/11 04:07:21;0.00;0.00;0.62;0.00;0.00;0.62;3.67;3.37;;;31.00;24.30;;;;;;2252540;61;20402;-65
2023/06/11 04:10:08;0.00;0.00;0.62;0.00;0.00;0.62;4.30;3.90;;;30.90;24.30;;;;;;2252760;61;20362;-64
2023/06/11 04:12:52;0.00;0.00;0.62;0.00;0.00;0.62;4.10;3.70;;;31.00;24.30;;;;;;2252113;61;20897;-64
2023/06/11 04:15:39;0.00;0.00;0.62;0.00;0.00;0.62;4.30;3.90;;;30.90;24.30;;;;;;2252445;61;20359;-65
2023/06/11 04:18:27;0.00;0.00;0.62;0.00;0.00;0.62;3.50;3.20;;;30.90;24.30;;;;;;2252595;61;20483;-64
2023/06/11 04:21:14;0.00;0.00;0.62;0.00;0.00;0.62;4.37;3.97;;;30.90;24.30;;;;;;2252203;61;20386;-64
2023/06/11 04:23:59;0.00;0.00;0.62;0.00;0.00;0.62;5.27;4.03;;;30.90;24.30;;;;;;2252596;61;20394;-65
2023/06/11 04:26:47;0.00;0.00;0.62;0.00;0.00;0.62;4.30;3.73;;;30.90;24.30;;;;;;2252404;61;20849;-68
2023/06/11 04:29:33;0.00;0.00;0.62;0.00;0.00;0.62;4.77;4.37;;;31.00;24.30;;;;;;2252304;61;20377;-65
2023/06/11 04:32:20;0.00;0.00;0.62;0.00;0.00;0.62;4.57;4.00;;;30.90;24.20;;;;;;2249479;61;20390;-65
2023/06/11 04:35:07;0.00;0.00;0.62;0.00;0.00;0.62;4.10;3.70;;;30.90;24.30;;;;;;2252240;61;20458;-65
2023/06/11 04:37:55;0.00;0.00;0.62;0.00;0.00;0.62;4.20;3.80;;;30.90;24.20;;;;;;2252267;61;20406;-64
2023/06/11 04:40:43;0.00;0.00;0.62;0.00;0.00;0.62;3.60;3.30;;;30.90;24.20;;;;;;2252331;61;20482;-64
2023/06/11 04:43:33;0.00;0.00;0.62;0.00;0.00;0.62;4.70;4.07;;;30.90;24.20;;;;;;2249300;61;20952;-64
2023/06/11 04:46:18;0.00;0.00;0.62;0.00;0.00;0.62;3.87;3.57;;;30.90;24.20;;;;;;2252404;61;20275;-65
2023/06/11 04:49:08;0.00;0.00;0.62;0.00;0.00;0.62;4.37;3.97;;;30.90;24.20;;;;;;2256473;61;20382;-64
2023/06/11 04:51:53;0.00;0.00;0.62;0.00;0.00;0.62;3.67;3.37;;;30.90;24.20;;;;;;2256041;61;20842;-66
2023/06/11 04:54:41;0.00;0.00;0.62;0.00;0.00;0.62;4.60;4.17;;;30.90;24.20;;;;;;2256796;61;20883;-64
2023/06/11 04:57:26;0.00;0.00;0.62;0.00;0.00;0.62;3.97;3.47;;;30.90;24.20;;;;;;2256234;61;20369;-63
2023/06/11 05:00:13;0.00;0.00;0.62;0.00;0.00;0.62;3.90;3.40;;;30.90;24.20;;;;;;2256222;61;20412;-64
2023/06/11 05:03:01;0.00;0.00;0.62;0.00;0.00;0.62;4.97;3.90;;;30.90;24.20;;;;;;2256302;61;20610;-65
2023/06/11 05:05:51;0.00;0.00;0.62;0.00;0.00;0.62;3.47;3.17;;;30.80;24.70;;;;;;2256112;61;20386;-64
2023/06/11 05:08:36;0.00;0.00;0.62;0.00;0.00;0.62;3.60;3.20;;;30.80;24.20;;;;;;2256396;61;20501;-64
2023/06/11 05:11:22;0.00;0.00;0.62;0.00;0.00;0.62;4.90;4.30;;;30.80;24.20;;;;;;2256198;61;20469;-64
2023/06/11 05:14:07;0.00;0.00;0.62;0.00;0.00;0.62;4.53;3.57;;;30.80;24.10;;;;;;2256466;61;20501;-65
2023/06/11 05:16:52;0.00;0.00;0.62;0.00;0.00;0.62;3.47;3.17;;;30.90;24.20;;;;;;2256258;61;20386;-66
2023/06/11 05:19:37;0.00;0.00;0.62;0.00;0.00;0.62;4.40;3.40;;;30.80;24.20;;;;;;2256039;61;20454;-64
2023/06/11 05:22:24;0.00;0.00;0.62;0.00;0.00;0.62;4.40;3.73;;;30.80;24.20;;;;;;2255768;61;20928;-65
2023/06/11 05:25:14;0.00;0.00;0.62;0.00;0.00;0.62;3.53;3.07;;;30.80;24.20;;;;;;2256158;61;20846;-64
2023/06/11 05:28:01;0.00;0.00;0.62;0.00;0.00;0.62;3.53;3.23;;;30.80;24.20;;;;;;2255563;61;20378;-62
2023/06/11 05:30:46;0.00;0.00;0.62;0.00;0.00;0.62;4.43;3.53;;;30.80;24.20;;;;;;2255659;61;20990;-65
2023/06/11 05:33:32;0.00;0.00;0.62;0.00;0.00;0.62;4.17;3.77;;;30.80;24.20;;;;;;2253107;61;20649;-65
2023/06/11 05:36:17;0.00;0.00;0.62;0.00;0.00;0.62;4.63;3.50;;;30.80;24.20;;;;;;2256305;61;20552;-65
2023/06/11 05:39:04;0.00;0.00;0.62;0.00;0.00;0.62;4.10;3.73;;;30.80;24.20;;;;;;2253356;61;20366;-65
2023/06/11 05:41:50;0.00;0.00;0.62;0.00;0.00;0.62;4.20;3.60;;;30.80;24.20;;;;;;2255649;61;20547;-66
2023/06/11 05:44:37;0.00;0.00;0.62;0.00;0.00;0.62;4.57;3.30;;;30.80;24.20;;;;;;2256064;61;20414;-65
2023/06/11 05:47:22;0.00;0.00;0.62;0.00;0.00;0.62;3.70;3.40;;;30.80;24.20;;;;;;2251967;61;20482;-65
2023/06/11 05:50:11;0.00;0.00;0.62;0.00;0.00;0.62;4.07;3.67;;;30.80;24.20;;;;;;2251969;61;20370;-65
2023/06/11 05:52:56;0.00;0.00;0.62;0.00;0.00;0.62;3.90;3.50;;;30.80;24.20;;;;;;2255107;61;20433;-64
2023/06/11 05:55:42;0.00;0.00;0.62;0.00;0.00;0.62;4.97;3.73;;;30.80;24.20;;;;;;2253350;61;20413;-64
2023/06/11 05:58:32;0.00;0.00;0.62;0.00;0.00;0.62;3.73;3.40;;;30.80;24.20;;;;;;2256019;61;20425;-65
2023/06/11 06:01:17;0.00;0.00;0.62;0.00;0.00;0.62;4.23;3.83;;;30.80;24.20;;;;;;2255942;61;20711;-64
2023/06/11 06:04:03;0.00;0.00;0.62;0.00;0.00;0.62;3.80;3.50;;;30.80;24.20;;;;;;2255843;61;20390;-65
2023/06/11 06:06:48;0.00;0.00;0.62;0.00;0.00;0.62;4.43;4.00;;;30.80;24.20;;;;;;2256640;61;20370;-66
2023/06/11 06:09:33;0.00;0.00;0.62;0.00;0.00;0.62;4.27;3.87;;;30.80;24.30;;;;;;2256107;61;20841;-64
2023/06/11 06:12:19;0.00;0.00;0.62;0.00;0.00;0.62;4.47;4.07;;;30.80;24.30;;;;;;2255783;61;20767;-65
2023/06/11 06:15:06;0.00;0.00;0.62;0.00;0.00;0.62;4.80;4.40;;;30.80;24.30;;;;;;2256661;61;20409;-64
2023/06/11 06:17:51;0.00;0.00;0.62;0.00;0.00;0.62;6.27;4.07;;;30.80;24.30;;;;;;2256026;61;20365;-64
2023/06/11 06:20:44;0.00;0.00;0.62;0.00;0.00;0.62;4.43;4.03;;;30.70;24.20;;;;;;2256257;61;20381;-65
2023/06/11 06:23:29;0.00;0.00;0.62;0.00;0.00;0.62;4.30;3.90;;;30.70;24.30;;;;;;2256064;61;20454;-65
2023/06/11 06:26:23;0.00;0.00;0.62;0.00;0.00;0.62;4.60;4.20;;;30.80;24.30;;;;;;2255979;61;20364;-64
2023/06/11 06:29:12;0.00;0.00;0.62;0.00;0.00;0.62;4.70;4.30;;;30.70;24.20;;;;;;2255847;61;20369;-63
2023/06/11 06:31:57;0.00;0.00;0.62;0.00;0.00;0.62;5.17;4.63;;;30.70;24.20;;;;;;2256002;61;20398;-64
2023/06/11 06:34:42;0.00;0.00;0.62;0.00;0.00;0.62;4.47;4.07;;;30.70;24.30;;;;;;2255863;61;20420;-65
2023/06/11 06:37:29;0.00;0.00;0.62;0.00;0.00;0.62;4.67;4.27;;;30.70;24.30;;;;;;2256137;61;20895;-63
2023/06/11 06:40:15;0.00;0.00;0.62;0.00;0.00;0.62;4.30;3.93;;;30.70;24.30;;;;;;2255906;61;20458;-67
2023/06/11 06:43:00;0.00;0.00;0.62;0.00;0.00;0.62;4.23;3.90;;;30.70;24.30;;;;;;2255892;61;20385;-64
2023/06/11 06:45:52;0.00;0.00;0.62;0.00;0.00;0.62;4.10;3.80;;;30.70;24.30;;;;;;2256477;61;20444;-64
2023/06/11 06:48:42;0.00;0.00;0.62;0.00;0.00;0.62;4.67;4.23;;;30.70;24.30;;;;;;2489867;53;20393;-64
2023/06/11 06:51:29;0.00;0.00;0.62;0.00;0.00;0.62;4.90;4.50;;;30.70;24.30;;;;;;2252253;61;20410;-64
2023/06/11 06:54:16;0.00;0.00;0.62;0.00;0.00;0.62;4.50;4.10;;;30.70;24.30;;;;;;2255987;61;20389;-64
2023/06/11 06:57:01;0.00;0.00;0.62;0.00;0.00;0.62;6.33;5.10;;;30.70;24.30;;;;;;2255872;61;20409;-64
2023/06/11 06:59:46;0.00;0.00;0.62;0.00;0.00;0.62;4.47;4.07;;;30.80;24.30;;;;;;2253141;61;20450;-65
2023/06/11 07:02:33;0.00;0.00;0.62;0.00;0.00;0.62;5.13;4.70;;;30.70;24.30;;;;;;2255677;61;20827;-64
2023/06/11 07:05:18;0.00;0.00;0.62;0.00;0.00;0.62;4.73;4.33;;;30.80;24.30;;;;;;2255917;61;20436;-63
2023/06/11 07:08:03;0.00;0.00;0.62;0.00;0.00;0.62;5.43;4.73;;;30.70;24.30;;;;;;2256005;61;20405;-64
2023/06/11 07:10:50;0.00;0.00;0.62;0.00;0.00;0.62;5.27;4.77;;;30.70;24.30;;;;;;2255852;61;20385;-64
2023/06/11 07:13:39;0.00;0.00;0.62;0.00;0.00;0.62;5.37;4.87;;;30.80;24.30;;;;;;2255631;61;20401;-64
2023/06/11 07:16:25;0.00;0.00;0.62;0.00;0.00;0.62;5.70;5.20;;;30.70;24.30;;;;;;2256017;61;20880;-65
2023/06/11 07:19:18;0.00;0.00;0.62;0.00;0.00;0.62;4.43;4.03;;;30.70;24.30;;;;;;2255808;61;20408;-64
2023/06/11 07:22:03;0.00;0.00;0.62;0.00;0.00;0.62;6.10;5.60;;;30.70;24.30;;;;;;2256104;61;20430;-66
2023/06/11 07:24:52;0.00;0.00;0.62;0.00;0.00;0.62;5.80;5.30;;;30.70;24.30;;;;;;2253121;61;20425;-64
2023/06/11 07:27:37;0.00;0.00;0.62;0.00;0.00;0.62;4.80;4.40;;;30.70;24.30;;;;;;2255989;61;20502;-64
2023/06/11 07:30:21;0.00;0.00;0.62;0.00;0.00;0.62;4.87;4.40;;;30.70;24.30;;;;;;2256326;61;20365;-64
2023/06/11 07:33:07;0.00;0.00;0.62;0.00;0.00;0.62;5.40;4.90;;;30.80;24.40;;;;;;2255947;61;20782;-65
2023/06/11 07:35:56;0.00;0.00;0.62;0.00;0.00;0.62;5.20;4.80;;;30.80;24.40;;;;;;2255917;61;20361;-64
2023/06/11 07:38:43;0.00;0.00;0.62;0.00;0.00;0.62;5.70;5.10;;;30.70;24.30;;;;;;2255891;61;20386;-63
2023/06/11 07:41:28;0.00;0.00;0.62;0.00;0.00;0.62;5.37;4.93;;;30.80;24.40;;;;;;2255523;61;20919;-66
2023/06/11 07:44:13;0.00;0.00;0.62;0.00;0.00;0.62;5.23;4.73;;;30.70;24.30;;;;;;2255777;61;20389;-65
2023/06/11 07:46:58;0.00;0.00;0.62;0.00;0.00;0.62;5.33;4.83;;;30.70;24.30;;;;;;2255785;61;20401;-65
2023/06/11 07:49:43;0.00;0.00;0.62;0.00;0.00;0.62;5.77;5.27;;;30.80;24.40;;;;;;2256362;61;20924;-64
2023/06/11 07:52:30;0.00;0.00;0.62;0.00;0.00;0.62;5.57;5.07;;;30.70;24.30;;;;;;2255483;61;20385;-64
2023/06/11 07:55:23;0.00;0.00;0.62;0.00;0.00;0.62;6.50;5.90;;;30.70;24.30;;;;;;2255903;61;20953;-63
2023/06/11 07:58:07;0.00;0.00;0.62;0.00;0.00;0.62;5.33;4.87;;;30.70;24.30;;;;;;2255755;61;20365;-65
2023/06/11 08:00:52;0.00;0.00;0.62;0.00;0.00;0.62;5.33;4.90;;;30.80;24.40;;;;;;2256359;61;20799;-63
2023/06/11 08:03:37;0.00;0.00;0.62;0.00;0.00;0.62;6.00;5.50;;;30.70;24.30;;;;;;2255802;61;20435;-63
2023/06/11 08:06:22;0.00;0.00;0.62;0.00;0.00;0.62;5.37;4.87;;;30.80;24.40;;;;;;2256265;61;20416;-63
2023/06/11 08:09:09;0.00;0.00;0.62;0.00;0.00;0.62;6.63;6.03;;;30.80;24.40;;;;;;2256065;61;20370;-64
2023/06/11 08:11:53;0.00;0.00;0.62;0.00;0.00;0.62;6.37;5.80;;;30.80;24.40;;;;;;2256028;61;20385;-64
2023/06/11 08:14:38;0.00;0.00;0.62;0.00;0.00;0.62;5.50;5.00;;;30.80;24.40;;;;;;2256178;61;20836;-63
2023/06/11 08:17:22;0.00;0.00;0.62;0.00;0.00;0.62;6.20;5.70;;;30.80;24.40;;;;;;2256095;61;20357;-64
2023/06/11 08:20:08;0.00;0.00;0.62;0.00;0.00;0.62;5.60;5.10;;;30.80;24.40;;;;;;2256527;61;20462;-65
2023/06/11 08:22:53;0.00;0.00;0.62;0.00;0.00;0.62;5.60;5.10;;;30.80;24.40;;;;;;2256644;61;20374;-65
2023/06/11 08:25:39;0.00;0.00;0.62;0.00;0.00;0.62;6.00;5.50;;;30.80;24.40;;;;;;2256739;61;20452;-67
2023/06/11 08:28:24;0.00;0.00;0.62;0.00;0.00;0.62;5.53;5.03;;;30.80;24.40;;;;;;2256903;61;20416;-66
2023/06/11 08:31:10;0.00;0.00;0.62;0.00;0.00;0.62;5.73;5.23;;;30.80;24.40;;;;;;2256563;61;20793;-67
2023/06/11 08:33:55;0.00;0.00;0.62;0.00;0.00;0.62;5.53;5.10;;;30.80;24.40;;;;;;2256677;61;20882;-67
2023/06/11 08:36:43;0.00;0.00;0.62;0.00;0.00;0.62;4.93;4.40;;;30.80;24.40;;;;;;2256501;61;20983;-66
2023/06/11 08:39:28;0.00;0.00;0.62;0.00;0.00;0.62;5.30;4.80;;;30.80;24.40;;;;;;2256705;61;20409;-67
2023/06/11 08:42:14;0.00;0.00;0.62;0.00;0.00;0.62;5.70;5.27;;;30.80;24.40;;;;;;2256222;61;20404;-66
2023/06/11 08:44:59;0.00;0.00;0.62;0.00;0.00;0.62;5.90;5.40;;;30.80;24.40;;;;;;2256669;61;20382;-66
2023/06/11 08:47:51;0.00;0.00;0.62;0.00;0.00;0.62;5.60;5.10;;;30.80;24.40;;;;;;2256584;61;20416;-67
2023/06/11 08:50:37;0.00;0.00;0.62;0.00;0.00;0.62;6.90;5.00;;;30.80;24.40;;;;;;2256987;61;20390;-66
2023/06/11 08:53:22;0.00;0.00;0.62;0.00;0.00;0.62;5.70;5.20;;;30.80;24.40;;;;;;2256393;61;20900;-67
2023/06/11 08:56:07;0.00;0.00;0.62;0.00;0.00;0.62;5.60;5.10;;;30.80;24.40;;;;;;2256981;61;20389;-66
2023/06/11 08:58:54;0.00;0.00;0.62;0.00;0.00;0.62;5.40;4.90;;;30.80;24.40;;;;;;2256720;61;20366;-67
2023/06/11 09:01:40;0.00;0.00;0.62;0.00;0.00;0.62;5.80;5.30;;;30.80;24.40;;;;;;2256411;61;20505;-66
2023/06/11 09:04:25;0.00;0.00;0.62;0.00;0.00;0.62;5.33;4.83;;;30.80;24.40;;;;;;2256827;61;20485;-66
2023/06/11 09:07:10;0.00;0.00;0.62;0.00;0.00;0.62;5.37;4.87;;;30.80;24.40;;;;;;2256656;61;20370;-67
2023/06/11 09:10:07;0.00;0.00;0.62;0.00;0.00;0.62;5.30;4.90;;;30.80;24.40;;;;;;2256626;61;20361;-66
2023/06/11 09:12:54;0.00;0.00;0.62;0.00;0.00;0.62;6.13;5.40;;;30.80;24.40;;;;;;2256291;61;20366;-66
2023/06/11 09:15:47;0.00;0.00;0.62;0.00;0.00;0.62;5.10;4.60;;;30.80;24.40;;;;;;2256707;61;20362;-67
2023/06/11 09:18:31;0.00;0.00;0.62;0.00;0.00;0.62;5.30;4.87;;;30.80;24.40;;;;;;2256642;61;20382;-67
2023/06/11 09:21:17;0.00;0.00;0.62;0.00;0.00;0.62;5.60;5.10;;;30.80;24.30;;;;;;2256405;61;20489;-66
2023/06/11 09:24:07;0.00;0.00;0.62;0.00;0.00;0.62;5.30;4.80;;;30.80;24.30;;;;;;2256570;61;20923;-67
2023/06/11 09:26:53;0.00;0.00;0.62;0.00;0.00;0.62;5.33;4.83;;;30.80;24.40;;;;;;2256834;61;20776;-65
2023/06/11 09:29:44;0.00;0.00;0.62;0.00;0.00;0.62;4.60;4.20;;;30.90;24.40;;;;;;2256573;61;20369;-66
2023/06/11 09:32:30;0.00;0.00;0.62;0.00;0.00;0.62;4.53;4.13;;;30.80;24.30;;;;;;2256273;61;20386;-66
2023/06/11 09:35:15;0.00;0.00;0.62;0.00;0.00;0.62;4.67;4.27;;;30.80;24.30;;;;;;2256552;61;20775;-68
2023/06/11 09:38:00;0.00;0.00;0.62;0.00;0.00;0.62;4.83;4.43;;;30.90;24.40;;;;;;2256461;61;20782;-65
2023/06/11 09:40:46;0.00;0.00;0.62;0.00;0.00;0.62;5.07;4.67;;;30.90;24.40;;;;;;2256783;61;20444;-66
2023/06/11 09:43:31;0.00;0.00;0.62;0.00;0.00;0.62;4.80;4.40;;;30.90;24.40;;;;;;2256444;61;20442;-65
2023/06/11 09:46:16;0.00;0.00;0.62;0.00;0.00;0.62;4.87;4.47;;;30.90;24.40;;;;;;2256448;61;20448;-67
2023/06/11 09:49:02;0.00;0.00;0.62;0.00;0.00;0.62;4.77;4.37;;;30.90;24.40;;;;;;2256467;61;20782;-66
2023/06/11 09:51:48;0.00;0.00;0.62;0.00;0.00;0.62;4.47;4.07;;;30.90;24.40;;;;;;2256276;61;20441;-67
2023/06/11 09:54:35;0.00;0.00;0.62;0.00;0.00;0.62;4.57;4.07;;;30.90;24.40;;;;;;2256339;61;20385;-67
2023/06/11 09:57:21;0.00;0.00;0.62;0.00;0.00;0.62;5.30;4.80;;;30.90;24.40;;;;;;2256267;61;20908;-67
2023/06/11 10:00:12;0.00;0.00;0.62;0.00;0.00;0.62;4.20;3.83;;;30.90;24.40;;;;;;2256152;61;20397;-66
2023/06/11 10:02:57;0.00;0.00;0.62;0.00;0.00;0.62;4.67;4.27;;;30.90;24.40;;;;;;2255833;61;20472;-67
2023/06/11 10:05:43;0.00;0.00;0.62;0.00;0.00;0.62;4.17;3.87;;;30.90;24.40;;;;;;2256317;61;20390;-68
2023/06/11 10:08:33;0.00;0.00;0.62;0.00;0.00;0.62;4.60;4.20;;;30.90;24.40;;;;;;2256377;61;20374;-67
2023/06/11 10:11:22;0.00;0.00;0.62;0.00;0.00;0.62;4.33;3.97;;;30.90;24.40;;;;;;2256524;61;20943;-65
2023/06/11 10:14:12;0.00;0.00;0.62;0.00;0.00;0.62;4.60;4.20;;;30.90;24.30;;;;;;2256447;61;20370;-64
2023/06/11 10:16:57;0.00;0.00;0.62;0.00;0.00;0.62;4.50;4.10;;;31.00;24.30;;;;;;2256337;61;20358;-66
2023/06/11 10:19:46;0.00;0.00;0.62;0.00;0.00;0.62;4.23;3.83;;;30.90;24.30;;;;;;2256137;61;20409;-66
2023/06/11 10:22:34;0.00;0.00;0.62;0.00;0.00;0.62;4.83;4.43;;;31.00;24.20;;;;;;2256147;61;20382;-66
2023/06/11 10:25:19;0.00;0.00;0.62;0.00;0.00;0.62;4.50;4.10;;;31.00;24.20;;;;;;2256615;61;20801;-67
2023/06/11 10:28:04;0.00;0.00;0.62;0.00;0.00;0.62;4.23;3.87;;;31.00;24.20;;;;;;2256507;61;20780;-66
2023/06/11 10:30:55;0.00;0.00;0.62;0.00;0.00;0.62;4.10;3.70;;;31.00;24.20;;;;;;2256541;61;20412;-66
2023/06/11 10:33:44;0.00;0.00;0.62;0.00;0.00;0.62;4.27;3.87;;;31.00;24.70;;;;;;2256357;61;20903;-66
2023/06/11 10:36:35;0.00;0.00;0.62;0.00;0.00;0.62;4.00;3.60;;;31.00;24.20;;;;;;2256448;61;20366;-66
2023/06/11 10:39:23;0.00;0.00;0.62;0.00;0.00;0.62;3.77;3.47;;;31.00;24.20;;;;;;2256499;61;20935;-66
2023/06/11 10:42:10;0.00;0.00;0.62;0.00;0.00;0.62;3.50;3.20;;;31.00;24.20;;;;;;2255650;61;20504;-65
2023/06/11 10:44:58;0.00;0.00;0.62;0.00;0.00;0.62;3.97;3.67;;;31.00;24.20;;;;;;2256444;61;20868;-66
2023/06/11 10:47:45;0.00;0.00;0.62;0.00;0.00;0.62;3.87;3.57;;;31.00;24.20;;;;;;2256267;61;20558;-66
2023/06/11 10:50:33;0.00;0.00;0.62;0.00;0.00;0.62;3.47;3.17;;;31.00;24.20;;;;;;2256415;61;20482;-66
2023/06/11 10:53:19;0.00;0.00;0.62;0.00;0.00;0.62;3.80;3.50;;;31.00;24.20;;;;;;2255862;61;20420;-66
2023/06/11 10:56:05;0.00;0.00;0.62;0.00;0.00;0.62;3.67;3.37;;;31.00;24.20;;;;;;2256288;61;20419;-67